Time;durP1;ratioP1;P1;durP2;ratioP2;P2;SDS_P1;SDS_P2;PMS_P1;PMS_P2;Temp;Humidity;BMP_temperature;BMP_pressure;BME280_temperature;BME280_humidity;BME280_pressure;Samples;Min_cycle;Max_cycle;Signal;HPM_P1;HPM_P2
2021/11/22 00:01:30;;;;;;;11.27;1.52;;;;;;;5.85;81.79;102076.19;5054468;28;20029;-39
2021/11/22 00:03:55;;;;;;;10.13;2.17;;;;;;;5.80;81.45;102081.03;5052304;28;20040;-39
2021/11/22 00:06:20;;;;;;;15.55;1.73;;;;;;;5.80;81.96;102080.19;5035032;28;20033;-39
2021/11/22 00:08:46;;;;;;;14.80;1.45;;;;;;;5.77;81.61;102085.78;5034505;28;20093;-38
2021/11/22 00:11:11;;;;;;;10.57;1.52;;;;;;;5.72;82.57;102086.13;5034211;28;20021;-39
2021/11/22 00:13:37;;;;;;;17.30;1.38;;;;;;;5.78;81.78;102093.66;5034377;28;20053;-38
2021/11/22 00:16:02;;;;;;;13.88;1.70;;;;;;;5.77;81.49;102094.66;5034291;28;20029;-38
2021/11/22 00:18:28;;;;;;;20.80;2.17;;;;;;;5.71;82.02;102097.78;5034795;28;20033;-39
2021/11/22 00:20:53;;;;;;;11.85;1.38;;;;;;;5.69;81.84;102099.72;5040757;28;20029;-39
2021/11/22 00:23:19;;;;;;;12.70;1.60;;;;;;;5.64;82.21;102104.59;5034580;28;20030;-39
2021/11/22 00:25:44;;;;;;;6.70;1.38;;;;;;;5.68;81.92;102108.69;5042129;28;20032;-38
2021/11/22 00:28:10;;;;;;;10.10;1.20;;;;;;;5.64;82.07;102108.09;5054000;28;20443;-39
2021/11/22 00:30:35;;;;;;;16.17;1.25;;;;;;;5.65;81.85;102115.13;5053749;28;20134;-39
2021/11/22 00:33:02;;;;;;;16.33;1.50;;;;;;;5.61;82.25;102115.47;5052991;28;20036;-39
2021/11/22 00:35:33;;;;;;;10.45;1.60;;;;;;;5.60;82.31;102121.78;5050295;28;20029;-39
2021/11/22 00:38:05;;;;;;;12.65;1.65;;;;;;;5.56;82.27;102120.34;5056477;28;20458;-39
2021/11/22 00:40:32;;;;;;;19.17;1.90;;;;;;;5.50;82.55;102121.66;5034278;28;20029;-39
2021/11/22 00:42:58;;;;;;;11.07;1.20;;;;;;;5.58;82.13;102123.72;5034123;28;20480;-39
2021/11/22 00:45:23;;;;;;;9.13;1.50;;;;;;;5.46;82.58;102126.38;5033012;28;20044;-39
2021/11/22 00:47:49;;;;;;;9.02;1.25;;;;;;;5.46;82.62;102136.22;5033952;28;20472;-39
2021/11/22 00:50:15;;;;;;;10.48;1.45;;;;;;;5.50;82.55;102143.00;5034055;28;20029;-39
2021/11/22 00:52:40;;;;;;;12.13;1.73;;;;;;;5.53;82.23;102147.25;5042879;28;20476;-39
2021/11/22 00:55:06;;;;;;;8.18;1.40;;;;;;;5.46;82.38;102145.06;5053647;28;20043;-39
2021/11/22 00:57:31;;;;;;;10.68;1.30;;;;;;;5.48;82.44;102148.47;5053566;28;20023;-39
2021/11/22 00:59:58;;;;;;;11.43;1.77;;;;;;;5.45;82.64;102140.72;5053735;28;20033;-39
2021/11/22 01:02:24;;;;;;;14.85;1.30;;;;;;;5.38;82.66;102147.47;5053676;28;20017;-40
2021/11/22 01:04:49;;;;;;;5.70;1.60;;;;;;;5.39;82.78;102156.31;5053697;28;20021;-39
2021/11/22 01:07:15;;;;;;;7.60;1.30;;;;;;;5.40;82.72;102158.91;5051409;28;20155;-38
2021/11/22 01:09:40;;;;;;;9.07;1.92;;;;;;;5.35;82.70;102158.38;5034636;28;20155;-39
2021/11/22 01:12:06;;;;;;;11.27;1.42;;;;;;;5.35;82.45;102154.88;5033253;28;20021;-39
2021/11/22 01:14:32;;;;;;;10.95;1.45;;;;;;;5.38;82.55;102171.50;5040043;28;20048;-39
2021/11/22 01:16:58;;;;;;;6.80;1.30;;;;;;;5.38;82.53;102171.50;5052145;28;20503;-39
2021/11/22 01:19:23;;;;;;;8.45;1.88;;;;;;;5.33;82.41;102176.31;5053382;28;20083;-39
2021/11/22 01:21:48;;;;;;;7.78;1.85;;;;;;;5.35;82.53;102171.72;5053278;28;20050;-39
2021/11/22 01:24:14;;;;;;;6.97;1.50;;;;;;;5.32;82.69;102177.31;5043657;28;20033;-39
2021/11/22 01:26:39;;;;;;;8.25;1.13;;;;;;;5.28;82.97;102178.50;5033135;28;20029;-39
2021/11/22 01:29:05;;;;;;;15.25;1.80;;;;;;;5.31;82.69;102180.09;5033412;28;20468;-39
2021/11/22 01:31:30;;;;;;;16.23;1.95;;;;;;;5.19;82.72;102185.38;5033344;28;20443;-39
2021/11/22 01:33:56;;;;;;;10.60;1.55;;;;;;;5.16;83.02;102184.72;5032988;28;20064;-39
2021/11/22 01:36:21;;;;;;;9.30;1.30;;;;;;;5.15;82.85;102191.03;5031816;28;20477;-39
2021/11/22 01:38:47;;;;;;;10.10;1.17;;;;;;;5.17;82.65;102203.31;5032604;28;20463;-39
2021/11/22 01:41:12;;;;;;;5.65;1.65;;;;;;;5.15;82.29;102201.72;5049944;28;20062;-39
2021/11/22 01:43:37;;;;;;;12.27;2.03;;;;;;;5.19;82.21;102206.72;5052977;28;20025;-39
2021/11/22 01:46:03;;;;;;;14.52;1.73;;;;;;;5.13;82.09;102214.31;5052933;28;20021;-39
2021/11/22 01:48:28;;;;;;;9.70;2.22;;;;;;;5.13;81.56;102211.66;5052781;28;20392;-39
2021/11/22 01:50:54;;;;;;;8.55;1.58;;;;;;;5.14;81.44;102221.38;5052719;28;20047;-39
2021/11/22 01:53:21;;;;;;;2.45;0.82;;;;;;;5.11;81.57;102221.56;5052675;28;20079;-40
2021/11/22 01:55:47;;;;;;;10.55;1.33;;;;;;;5.10;81.50;102226.06;5046957;28;20107;-38
2021/11/22 01:58:13;;;;;;;10.07;1.27;;;;;;;5.06;81.26;102225.44;5052746;28;20057;-39
2021/11/22 02:00:51;;;;;;;16.50;1.67;;;;;;;5.09;80.97;102218.19;5051402;28;20033;-39
2021/11/22 02:03:17;;;;;;;5.03;1.17;;;;;;;5.05;80.38;102226.44;5052579;28;20021;-39
2021/11/22 02:05:44;;;;;;;6.07;1.00;;;;;;;5.06;80.19;102230.78;5052581;28;20114;-39
2021/11/22 02:08:10;;;;;;;13.80;1.77;;;;;;;4.99;80.41;102234.84;5052471;28;20387;-39
2021/11/22 02:10:36;;;;;;;4.50;1.08;;;;;;;5.04;79.35;102234.53;5049171;28;20021;-39
2021/11/22 02:13:02;;;;;;;20.92;1.75;;;;;;;5.03;79.60;102236.34;5034230;28;20167;-39
2021/11/22 02:15:27;;;;;;;9.43;1.63;;;;;;;5.00;79.45;102249.94;5048819;28;20450;-39
2021/11/22 02:17:54;;;;;;;9.82;1.08;;;;;;;4.97;79.06;102235.94;5052407;28;20033;-39
2021/11/22 02:20:23;;;;;;;11.63;1.30;;;;;;;4.94;79.19;102242.34;5052628;28;20078;-39
2021/11/22 02:22:50;;;;;;;8.10;1.15;;;;;;;4.94;79.00;102242.34;5051197;28;20488;-39
2021/11/22 02:25:17;;;;;;;7.63;1.73;;;;;;;4.94;79.23;102237.00;5052315;28;20079;-39
2021/11/22 02:27:46;;;;;;;7.53;1.13;;;;;;;4.92;79.15;102244.25;5046600;28;20031;-39
2021/11/22 02:30:14;;;;;;;10.80;1.50;;;;;;;4.88;78.61;102242.78;5052354;28;20032;-39
2021/11/22 02:32:41;;;;;;;7.87;1.20;;;;;;;4.91;78.68;102249.72;5052335;28;20113;-39
2021/11/22 02:35:09;;;;;;;8.65;1.10;;;;;;;4.92;78.36;102249.59;5053538;28;20040;-39
2021/11/22 02:37:34;;;;;;;13.07;1.67;;;;;;;4.91;78.38;102250.56;5056329;28;20021;-39
2021/11/22 02:39:59;;;;;;;6.43;1.30;;;;;;;4.91;78.21;102257.72;5057007;28;20025;-38
2021/11/22 02:42:28;;;;;;;9.73;1.35;;;;;;;4.83;78.76;102258.28;5050425;28;20022;-39
2021/11/22 02:44:54;;;;;;;8.20;1.70;;;;;;;4.82;78.99;102259.25;5056112;28;20033;-39
2021/11/22 02:47:20;;;;;;;11.48;1.20;;;;;;;4.78;78.91;102260.41;5056653;28;20029;-39
2021/11/22 02:49:46;;;;;;;10.85;1.10;;;;;;;4.78;78.72;102263.09;5056215;28;20044;-39
2021/11/22 02:52:12;;;;;;;7.35;1.13;;;;;;;4.78;78.63;102268.41;5056045;28;20380;-39
2021/11/22 02:54:37;;;;;;;7.80;1.55;;;;;;;4.67;78.98;102271.84;5056161;28;20446;-39
2021/11/22 02:57:03;;;;;;;10.23;1.48;;;;;;;4.72;78.57;102279.53;5056180;28;20515;-39
2021/11/22 02:59:28;;;;;;;15.48;1.20;;;;;;;4.73;78.69;102279.41;5042650;28;20091;-39
2021/11/22 03:01:54;;;;;;;5.68;1.38;;;;;;;4.77;78.05;102280.06;5035928;28;20025;-39
2021/11/22 03:04:19;;;;;;;9.52;1.40;;;;;;;4.77;78.16;102282.72;5035808;28;20025;-39
2021/11/22 03:06:45;;;;;;;12.15;1.38;;;;;;;4.75;78.21;102282.81;5034510;28;20044;-39
2021/11/22 03:09:12;;;;;;;15.52;1.45;;;;;;;4.69;78.40;102290.44;5018451;28;20118;-39
2021/11/22 03:11:37;;;;;;;11.65;1.05;;;;;;;4.65;79.29;102294.25;5035887;28;20375;-39
2021/11/22 03:14:02;;;;;;;7.57;1.20;;;;;;;4.70;78.62;102292.13;5035633;28;20124;-39
2021/11/22 03:16:30;;;;;;;13.90;1.45;;;;;;;4.69;78.53;102291.28;5053905;28;20426;-39
2021/11/22 03:18:56;;;;;;;;;;;;;;;4.69;77.96;102291.28;5055860;28;20031;-39
2021/11/22 03:21:21;;;;;;;10.48;1.40;;;;;;;4.68;77.68;102299.38;5055397;28;19908;-39
2021/11/22 03:23:47;;;;;;;7.10;1.20;;;;;;;4.74;78.11;102301.59;5055460;28;20443;-39
2021/11/22 03:26:12;;;;;;;8.18;0.98;;;;;;;4.69;78.52;102312.59;5055486;28;20057;-39
2021/11/22 03:28:37;;;;;;;10.13;1.15;;;;;;;4.62;78.66;102311.31;5055146;28;20496;-39
2021/11/22 03:31:03;;;;;;;15.13;2.45;;;;;;;4.56;78.44;102315.28;5045083;28;20552;-39
2021/11/22 03:33:28;;;;;;;12.10;1.20;;;;;;;4.57;78.97;102313.44;5035179;28;20100;-39
2021/11/22 03:35:55;;;;;;;9.05;1.05;;;;;;;4.54;78.93;102314.50;5035200;28;20018;-39
2021/11/22 03:38:22;;;;;;;9.07;1.05;;;;;;;4.48;78.90;102312.28;5047056;28;20384;-39
2021/11/22 03:40:49;;;;;;;9.85;1.52;;;;;;;4.50;79.12;102313.03;5069545;28;20032;-39
2021/11/22 03:43:25;;;;;;;12.05;1.42;;;;;;;4.48;79.26;102328.28;5075192;28;20063;-37
2021/11/22 03:45:50;;;;;;;7.50;1.38;;;;;;;4.49;78.67;102327.31;5065276;28;20025;-39
2021/11/22 03:48:15;;;;;;;8.85;0.70;;;;;;;4.52;78.63;102337.75;5054063;28;20033;-39
2021/11/22 03:50:41;;;;;;;7.38;1.02;;;;;;;4.51;78.89;102341.41;5053861;28;20049;-39
2021/11/22 03:53:06;;;;;;;6.25;1.20;;;;;;;4.42;78.94;102342.00;5054799;28;20034;-38
2021/11/22 03:55:31;;;;;;;6.28;0.80;;;;;;;4.37;79.60;102338.81;5055040;28;20039;-39
2021/11/22 03:57:57;;;;;;;10.98;1.00;;;;;;;4.46;79.46;102345.34;5054628;28;20491;-39
2021/11/22 04:00:24;;;;;;;8.85;1.10;;;;;;;4.42;79.35;102351.81;5054871;28;20495;-38
2021/11/22 04:02:49;;;;;;;11.63;0.88;;;;;;;4.36;79.01;102353.94;5044276;28;20025;-38
2021/11/22 04:05:15;;;;;;;11.93;1.50;;;;;;;4.31;79.83;102360.56;5034942;28;20033;-39
2021/11/22 04:07:40;;;;;;;10.68;1.42;;;;;;;4.32;79.82;102362.28;5034825;28;20033;-39
2021/11/22 04:10:06;;;;;;;8.60;1.17;;;;;;;4.30;79.42;102358.88;5033349;28;20448;-38
2021/11/22 04:12:31;;;;;;;6.90;0.90;;;;;;;4.37;79.53;102373.47;5034865;28;20084;-39
2021/11/22 04:14:56;;;;;;;17.88;1.50;;;;;;;4.41;78.62;102372.31;5046230;28;20396;-38
2021/11/22 04:17:22;;;;;;;3.67;1.27;;;;;;;4.44;78.32;102382.75;5052039;28;20767;-38
2021/11/22 04:19:47;;;;;;;6.95;0.88;;;;;;;4.54;78.29;102394.50;5051994;28;20033;-38
2021/11/22 04:22:12;;;;;;;9.02;1.30;;;;;;;4.54;78.22;102383.84;5054412;28;20100;-38
2021/11/22 04:24:39;;;;;;;11.57;1.30;;;;;;;4.54;78.23;102391.84;5054319;28;20029;-38
2021/11/22 04:27:05;;;;;;;9.02;1.10;;;;;;;4.52;77.95;102391.09;5054405;28;20060;-39
2021/11/22 04:29:30;;;;;;;4.72;0.90;;;;;;;4.55;78.06;102393.53;5054276;28;20048;-39
2021/11/22 04:31:56;;;;;;;6.15;0.95;;;;;;;4.55;77.90;102396.19;5054160;28;20391;-38
2021/11/22 04:34:22;;;;;;;12.80;1.20;;;;;;;4.54;77.87;102391.00;5044604;28;20039;-38
2021/11/22 04:36:47;;;;;;;9.35;1.13;;;;;;;4.58;78.16;102396.00;5033978;28;20099;-40
2021/11/22 04:39:12;;;;;;;14.73;1.33;;;;;;;4.49;78.22;102391.28;5033894;28;20108;-39
2021/11/22 04:41:38;;;;;;;8.90;1.00;;;;;;;4.44;78.74;102390.75;5034080;28;20037;-39
2021/11/22 04:44:04;;;;;;;16.05;1.42;;;;;;;4.45;78.38;102399.59;5032808;28;20387;-38
2021/11/22 04:46:30;;;;;;;10.90;1.17;;;;;;;4.47;78.11;102408.34;5033948;28;20029;-38
2021/11/22 04:48:56;;;;;;;7.53;0.88;;;;;;;4.46;78.47;102404.84;5033860;28;20032;-38
2021/11/22 04:51:21;;;;;;;8.30;1.20;;;;;;;4.49;78.23;102409.97;5036970;28;20022;-39
2021/11/22 04:53:46;;;;;;;12.27;1.30;;;;;;;4.47;78.04;102414.53;5033694;28;20021;-38
2021/11/22 04:56:12;;;;;;;5.38;0.70;;;;;;;4.47;77.80;102409.19;5042346;28;20068;-38
2021/11/22 04:58:37;;;;;;;5.55;1.02;;;;;;;4.43;78.53;102420.19;5052755;28;20476;-38
2021/11/22 05:01:03;;;;;;;15.40;2.80;;;;;;;4.42;78.88;102416.66;5053542;28;20108;-38
2021/11/22 05:03:28;;;;;;;9.40;1.15;;;;;;;4.40;79.06;102418.59;5045881;28;20033;-38
2021/11/22 05:05:53;;;;;;;7.07;1.20;;;;;;;4.36;79.48;102425.06;5039298;28;20056;-38
2021/11/22 05:08:19;;;;;;;10.25;1.77;;;;;;;4.40;78.24;102429.25;5044149;28;20037;-39
2021/11/22 05:10:44;;;;;;;20.60;1.52;;;;;;;4.42;79.26;102432.66;5033495;28;20480;-39
2021/11/22 05:13:12;;;;;;;7.50;1.00;;;;;;;4.38;79.18;102428.50;5032930;28;20104;-39
2021/11/22 05:15:38;;;;;;;13.48;1.73;;;;;;;4.45;78.82;102435.13;5033117;28;20025;-39
2021/11/22 05:18:05;;;;;;;5.68;0.90;;;;;;;4.42;78.85;102437.97;5031988;28;20025;-39
2021/11/22 05:20:30;;;;;;;10.25;1.35;;;;;;;4.43;78.91;102445.03;5042028;28;20037;-39
2021/11/22 05:22:57;;;;;;;8.13;1.23;;;;;;;4.42;78.95;102443.31;5049046;28;20499;-39
2021/11/22 05:25:22;;;;;;;5.53;0.93;;;;;;;4.40;79.22;102442.59;5053016;28;20104;-39
2021/11/22 05:27:48;;;;;;;11.23;1.20;;;;;;;4.46;78.73;102444.84;5052970;28;20052;-40
2021/11/22 05:30:13;;;;;;;15.95;1.70;;;;;;;4.43;79.01;102447.69;5052865;28;20503;-40
2021/11/22 05:32:39;;;;;;;10.10;0.85;;;;;;;4.39;79.36;102449.69;5052862;28;20024;-39
2021/11/22 05:35:04;;;;;;;11.68;1.48;;;;;;;4.36;79.29;102449.06;5052551;28;20111;-39
2021/11/22 05:37:31;;;;;;;4.68;0.80;;;;;;;4.32;79.72;102458.22;5033797;28;20029;-39
2021/11/22 05:39:56;;;;;;;12.63;1.48;;;;;;;4.29;79.76;102458.41;5041609;28;20128;-39
2021/11/22 05:42:22;;;;;;;8.18;1.40;;;;;;;4.28;79.52;102459.38;5052661;28;20021;-39
2021/11/22 05:44:47;;;;;;;13.20;1.35;;;;;;;4.23;79.46;102464.16;5044529;28;20387;-39
2021/11/22 05:47:13;;;;;;;6.82;1.17;;;;;;;4.20;79.42;102470.53;5051209;28;20025;-39
2021/11/22 05:49:39;;;;;;;4.68;1.08;;;;;;;4.18;79.94;102477.78;5052837;28;20017;-39
2021/11/22 05:52:06;;;;;;;14.90;1.55;;;;;;;4.08;80.67;102469.53;5052751;28;20480;-39
2021/11/22 05:54:33;;;;;;;10.10;1.35;;;;;;;4.10;80.69;102475.59;5042549;28;20508;-40
2021/11/22 05:57:00;;;;;;;10.93;1.23;;;;;;;4.07;80.49;102483.81;5031568;28;20029;-39
2021/11/22 05:59:26;;;;;;;17.10;1.95;;;;;;;4.17;80.32;102484.91;5032848;28;20048;-39
2021/11/22 06:01:51;;;;;;;3.28;0.90;;;;;;;4.12;80.01;102489.69;5032672;28;20025;-40
2021/11/22 06:04:17;;;;;;;7.90;1.60;;;;;;;4.11;80.58;102487.16;5047844;28;20041;-39
2021/11/22 06:06:42;;;;;;;4.38;0.95;;;;;;;4.07;80.41;102496.28;5052593;28;20017;-38
2021/11/22 06:09:08;;;;;;;5.57;0.90;;;;;;;4.00;80.88;102495.81;5052358;28;20025;-39
2021/11/22 06:11:33;;;;;;;4.55;1.30;;;;;;;4.00;81.10;102495.81;5052531;28;20464;-40
2021/11/22 06:13:59;;;;;;;5.10;0.85;;;;;;;3.90;81.29;102505.38;5052416;28;20056;-39
2021/11/22 06:16:24;;;;;;;15.55;1.55;;;;;;;3.90;81.41;102505.38;5052200;28;20057;-39
2021/11/22 06:18:50;;;;;;;9.38;1.35;;;;;;;3.95;81.40;102508.59;5052190;28;20029;-39
2021/11/22 06:21:15;;;;;;;6.28;1.30;;;;;;;3.94;81.39;102504.19;5052433;28;20066;-40
2021/11/22 06:23:40;;;;;;;4.78;1.23;;;;;;;3.95;81.43;102513.91;5052246;28;20032;-40
2021/11/22 06:26:06;;;;;;;10.98;1.65;;;;;;;3.89;81.21;102524.94;5052277;28;20025;-40
2021/11/22 06:28:31;;;;;;;5.13;1.40;;;;;;;3.91;81.37;102525.72;5036148;28;20029;-39
2021/11/22 06:30:57;;;;;;;10.45;1.88;;;;;;;3.89;81.43;102528.47;5032158;28;20134;-39
2021/11/22 06:33:23;;;;;;;9.50;1.52;;;;;;;3.82;81.70;102534.25;5032292;28;20040;-40
2021/11/22 06:35:48;;;;;;;5.72;1.20;;;;;;;3.84;81.56;102541.19;5031116;28;20018;-40
2021/11/22 06:38:14;;;;;;;17.60;1.70;;;;;;;3.73;82.43;102541.03;5035215;28;20045;-40
2021/11/22 06:40:40;;;;;;;8.68;1.58;;;;;;;3.63;83.05;102548.72;5063397;28;20120;-39
2021/11/22 06:43:05;;;;;;;13.05;1.77;;;;;;;3.64;82.70;102546.94;5050898;28;20120;-40
2021/11/22 06:45:31;;;;;;;8.38;1.50;;;;;;;3.67;82.88;102547.59;5052415;28;20464;-40
2021/11/22 06:47:56;;;;;;;11.80;1.60;;;;;;;3.66;82.97;102548.56;5051595;28;20044;-39
2021/11/22 06:50:22;;;;;;;13.77;1.50;;;;;;;3.62;82.90;102549.69;5050260;28;20119;-40
2021/11/22 06:52:47;;;;;;;15.55;1.83;;;;;;;3.64;82.90;102557.59;5051505;28;20038;-39
2021/11/22 06:55:13;;;;;;;14.95;1.67;;;;;;;3.64;83.05;102569.09;5050268;28;20025;-39
2021/11/22 06:57:39;;;;;;;8.18;1.58;;;;;;;3.70;82.47;102573.19;5052576;28;20025;-40
2021/11/22 07:00:07;;;;;;;15.00;1.67;;;;;;;3.77;82.23;102584.31;5052309;28;20036;-39
2021/11/22 07:02:33;;;;;;;14.48;1.52;;;;;;;3.73;82.23;102584.47;5052404;28;20104;-40
2021/11/22 07:04:58;;;;;;;11.38;1.73;;;;;;;3.73;82.75;102586.31;5050189;28;20464;-39
2021/11/22 07:07:25;;;;;;;7.05;1.67;;;;;;;3.71;83.12;102598.84;5051334;28;20048;-40
2021/11/22 07:09:50;;;;;;;8.57;1.58;;;;;;;3.69;83.39;102598.97;5051209;28;20472;-39
2021/11/22 07:12:16;;;;;;;7.65;1.40;;;;;;;3.73;82.75;102600.47;5051065;28;20036;-39
2021/11/22 07:14:43;;;;;;;10.20;1.70;;;;;;;3.73;83.47;102607.59;5049319;28;20045;-39
2021/11/22 07:17:08;;;;;;;12.57;1.40;;;;;;;3.82;83.30;102614.16;5050772;28;20025;-39
2021/11/22 07:19:34;;;;;;;9.75;1.80;;;;;;;3.78;83.35;102610.00;5042257;28;20476;-39
2021/11/22 07:22:03;;;;;;;18.05;2.00;;;;;;;3.78;83.08;102617.97;5050113;28;20037;-39
2021/11/22 07:24:29;;;;;;;8.35;1.80;;;;;;;3.86;83.00;102613.03;5046477;28;20077;-38
2021/11/22 07:26:54;;;;;;;41.45;1.98;;;;;;;3.98;82.14;102630.94;5044740;28;20167;-39
2021/11/22 07:29:20;;;;;;;5.25;1.35;;;;;;;4.04;82.04;102630.53;5034293;28;20387;-39
2021/11/22 07:31:45;;;;;;;4.90;1.40;;;;;;;4.12;81.93;102644.25;5034773;28;20112;-39
2021/11/22 07:34:11;;;;;;;10.82;1.52;;;;;;;4.15;81.33;102644.03;5034696;28;20160;-39
2021/11/22 07:36:36;;;;;;;8.40;1.50;;;;;;;4.16;82.35;102651.09;5034926;28;20607;-39
2021/11/22 07:39:02;;;;;;;5.43;1.45;;;;;;;4.23;82.17;102656.03;5034928;28;20377;-39
2021/11/22 07:41:27;;;;;;;8.80;1.88;;;;;;;4.43;81.10;102650.31;5047974;28;20021;-39
2021/11/22 07:43:53;;;;;;;7.35;1.90;;;;;;;4.56;80.87;102664.56;5052174;28;20412;-39
2021/11/22 07:46:18;;;;;;;19.67;2.38;;;;;;;4.65;80.38;102663.13;5051205;28;20032;-39
2021/11/22 07:48:43;;;;;;;11.85;1.85;;;;;;;4.72;80.08;102666.25;5053876;28;20093;-38
2021/11/22 07:51:09;;;;;;;10.45;1.60;;;;;;;4.91;79.75;102671.25;5047899;28;20029;-39
2021/11/22 07:53:35;;;;;;;10.80;1.63;;;;;;;5.12;79.47;102666.31;5053197;28;20029;-39
2021/11/22 07:56:00;;;;;;;4.72;1.48;;;;;;;5.35;78.21;102671.00;5051751;28;20082;-39
2021/11/22 07:58:26;;;;;;;9.63;1.90;;;;;;;5.69;76.72;102676.72;5051758;28;20118;-40
2021/11/22 08:00:52;;;;;;;15.75;1.80;;;;;;;6.16;75.07;102675.25;5048634;28;20045;-39
2021/11/22 08:03:17;;;;;;;7.63;1.33;;;;;;;6.77;73.97;102676.22;5054679;28;20403;-39
2021/11/22 08:05:44;;;;;;;15.32;1.55;;;;;;;7.51;71.78;102681.44;5054039;28;20072;-39
2021/11/22 08:08:09;;;;;;;4.32;1.92;;;;;;;8.35;69.29;102687.41;5054290;28;20040;-39
2021/11/22 08:10:37;;;;;;;23.63;3.03;;;;;;;9.33;65.62;102692.84;5053668;28;20025;-39
2021/11/22 08:13:04;;;;;;;;;;;;;;;9.91;62.94;102697.81;5053997;28;20111;-40
2021/11/22 08:15:31;;;;;;;14.50;2.38;;;;;;;10.97;60.00;102689.31;5053637;28;19913;-40
2021/11/22 08:17:58;;;;;;;14.32;1.95;;;;;;;11.55;58.07;102701.97;5035542;28;20022;-40
2021/11/22 08:20:23;;;;;;;11.10;1.83;;;;;;;12.11;55.63;102704.91;5033820;28;20101;-39
2021/11/22 08:22:50;;;;;;;18.67;2.10;;;;;;;12.61;54.55;102707.25;5036476;28;20033;-40
2021/11/22 08:25:17;;;;;;;7.45;2.10;;;;;;;12.64;54.40;102699.72;5053516;28;20063;-40
2021/11/22 08:27:43;;;;;;;17.65;2.10;;;;;;;12.96;52.67;102711.91;5053630;28;20033;-40
2021/11/22 08:30:11;;;;;;;8.07;1.85;;;;;;;13.64;51.02;102715.97;5053962;28;20032;-40
2021/11/22 08:32:38;;;;;;;5.22;1.42;;;;;;;14.18;49.08;102714.00;5054101;28;20456;-40
2021/11/22 08:35:04;;;;;;;11.73;2.20;;;;;;;14.56;48.42;102717.28;5053360;28;20056;-38
2021/11/22 08:37:30;;;;;;;12.68;2.20;;;;;;;14.95;46.84;102723.00;5052773;28;20103;-39
2021/11/22 08:39:55;;;;;;;16.85;2.65;;;;;;;15.07;46.76;102724.41;5053492;28;20104;-39
2021/11/22 08:42:22;;;;;;;8.48;2.10;;;;;;;15.35;46.21;102730.41;5048696;28;20561;-40
2021/11/22 08:44:48;;;;;;;23.73;3.07;;;;;;;15.35;45.40;102735.00;5041646;28;20095;-40
2021/11/22 08:47:14;;;;;;;11.82;3.00;;;;;;;15.53;45.83;102732.97;5053422;28;20650;-39
2021/11/22 08:49:39;;;;;;;11.95;2.22;;;;;;;15.62;45.52;102735.69;5053613;28;20032;-40
2021/11/22 08:52:05;;;;;;;20.95;3.00;;;;;;;15.21;46.41;102730.19;5039826;28;20041;-40
2021/11/22 08:54:31;;;;;;;12.73;2.47;;;;;;;15.36;45.49;102737.50;5033212;28;20100;-39
2021/11/22 08:56:56;;;;;;;16.02;2.83;;;;;;;15.12;46.29;102745.63;5042886;28;20111;-40
2021/11/22 08:59:22;;;;;;;13.32;2.28;;;;;;;14.88;47.14;102732.84;5053437;28;20033;-39
2021/11/22 09:01:47;;;;;;;14.05;2.60;;;;;;;14.50;47.86;102746.69;5051663;28;20511;-40
2021/11/22 09:04:12;;;;;;;11.15;2.22;;;;;;;14.35;48.35;102752.84;5051539;28;20135;-40
2021/11/22 09:06:38;;;;;;;11.85;2.10;;;;;;;14.68;47.17;102767.47;5051091;28;20087;-39
2021/11/22 09:09:05;;;;;;;9.98;1.92;;;;;;;15.04;46.50;102760.00;5043059;28;20025;-39
2021/11/22 09:11:30;;;;;;;11.10;1.70;;;;;;;14.91;46.63;102760.44;5033171;28;20026;-40
2021/11/22 09:13:56;;;;;;;10.75;1.92;;;;;;;14.33;48.51;102765.72;5044766;28;20403;-40
2021/11/22 09:16:27;;;;;;;12.57;2.28;;;;;;;13.93;48.85;102772.53;5051425;28;20028;-39
2021/11/22 09:18:57;;;;;;;11.40;2.10;;;;;;;14.04;48.50;102767.72;5053082;28;20111;-39
2021/11/22 09:21:22;;;;;;;10.88;2.08;;;;;;;14.07;47.83;102765.72;5052482;28;20025;-40
2021/11/22 09:23:48;;;;;;;16.10;2.25;;;;;;;14.12;48.33;102769.66;5039816;28;20025;-40
2021/11/22 09:26:15;;;;;;;12.48;2.58;;;;;;;14.40;47.52;102774.91;5047585;28;20032;-39
2021/11/22 09:28:41;;;;;;;8.18;2.60;;;;;;;14.50;47.42;102776.47;5035019;28;20036;-40
2021/11/22 09:31:06;;;;;;;11.63;2.95;;;;;;;14.27;48.56;102781.59;5037360;28;20424;-40
2021/11/22 09:33:33;;;;;;;11.32;1.65;;;;;;;14.63;47.29;102784.22;5052441;28;20498;-40
2021/11/22 09:35:58;;;;;;;8.48;1.77;;;;;;;14.68;46.82;102786.44;5052670;28;20394;-40
2021/11/22 09:38:24;;;;;;;11.68;1.85;;;;;;;14.49;46.66;102787.50;5052300;28;20033;-40
2021/11/22 09:40:50;;;;;;;7.22;1.52;;;;;;;14.15;47.59;102799.13;5059204;28;20047;-39
2021/11/22 09:43:15;;;;;;;9.68;2.08;;;;;;;13.67;47.96;102792.28;5052772;28;20384;-41
2021/11/22 09:45:41;;;;;;;9.68;1.63;;;;;;;13.26;50.52;102799.97;5038843;28;20396;-40
2021/11/22 09:48:07;;;;;;;11.60;1.98;;;;;;;13.15;50.63;102797.44;5052046;28;20060;-39
2021/11/22 09:50:33;;;;;;;6.35;1.63;;;;;;;12.93;51.16;102796.00;5051074;28;20068;-39
2021/11/22 09:52:59;;;;;;;14.60;1.70;;;;;;;12.90;50.99;102810.66;5052352;28;20079;-39
2021/11/22 09:55:29;;;;;;;9.60;2.60;;;;;;;13.08;50.76;102809.84;5052820;28;20055;-39
2021/11/22 09:57:55;;;;;;;9.00;1.90;;;;;;;13.16;50.61;102809.94;5052591;28;20040;-40
2021/11/22 10:00:21;;;;;;;7.18;1.45;;;;;;;12.87;51.46;102807.41;5039951;28;20029;-39
2021/11/22 10:02:52;;;;;;;9.82;1.63;;;;;;;12.42;51.44;102806.25;5032258;28;20021;-39
2021/11/22 10:05:30;;;;;;;9.15;1.88;;;;;;;11.84;54.03;102814.41;5031192;28;20392;-40
2021/11/22 10:08:18;;;;;;;14.82;1.52;;;;;;;11.48;55.81;102810.53;5032689;28;20083;-40
2021/11/22 10:10:52;;;;;;;9.63;1.27;;;;;;;11.84;55.10;102817.94;5032436;28;20063;-40
2021/11/22 10:13:23;;;;;;;4.00;1.27;;;;;;;12.39;53.25;102811.13;5030707;28;20050;-39
2021/11/22 10:16:01;;;;;;;11.13;1.98;;;;;;;13.10;51.89;102811.41;5042966;28;20037;-40
2021/11/22 10:18:32;;;;;;;8.57;1.73;;;;;;;13.52;51.08;102818.16;5051105;28;20022;-41
2021/11/22 10:21:04;;;;;;;11.60;1.52;;;;;;;13.65;49.10;102813.22;5051504;28;20052;-39
2021/11/22 10:23:30;;;;;;;13.57;1.60;;;;;;;13.48;49.35;102816.75;5051186;28;20029;-42
2021/11/22 10:25:57;;;;;;;8.57;1.48;;;;;;;12.98;50.60;102823.44;5052379;28;20025;-41
2021/11/22 10:28:27;;;;;;;6.13;1.38;;;;;;;12.45;52.27;102807.81;5049455;28;20025;-41
2021/11/22 10:30:55;;;;;;;15.77;1.67;;;;;;;12.08;53.01;102808.59;5032495;28;20033;-41
2021/11/22 10:33:26;;;;;;;6.40;1.23;;;;;;;11.93;54.54;102810.91;5032322;28;20026;-41
2021/11/22 10:35:55;;;;;;;10.07;1.83;;;;;;;11.77;54.09;102806.03;5051865;28;20025;-42
2021/11/22 10:38:31;;;;;;;15.48;1.45;;;;;;;11.97;53.62;102812.31;5052225;28;20048;-41
2021/11/22 10:41:05;;;;;;;5.50;1.48;;;;;;;12.17;53.20;102817.72;5051935;28;20029;-41
2021/11/22 10:43:38;;;;;;;3.67;1.30;;;;;;;12.39;52.69;102809.25;5051965;28;20029;-39
2021/11/22 10:46:07;;;;;;;6.80;1.35;;;;;;;12.79;53.47;102815.41;5049802;28;20032;-40
2021/11/22 10:48:32;;;;;;;6.80;1.20;;;;;;;13.23;51.37;102815.63;5051736;28;20332;-39
2021/11/22 10:51:11;;;;;;;10.40;1.13;;;;;;;13.66;48.63;102812.22;5050181;28;20029;-40
2021/11/22 10:53:43;;;;;;;5.85;1.27;;;;;;;13.89;47.83;102828.00;5050120;28;20518;-40
2021/11/22 10:56:14;;;;;;;10.05;1.30;;;;;;;13.98;48.63;102821.63;5053177;28;20029;-40
2021/11/22 10:58:39;;;;;;;9.52;1.50;;;;;;;13.66;49.17;102814.91;5054356;28;20495;-41
2021/11/22 11:01:13;;;;;;;7.05;1.80;;;;;;;14.17;47.84;102820.63;5061157;28;20123;-41
2021/11/22 11:03:39;;;;;;;5.43;1.30;;;;;;;14.11;46.07;102822.09;5055159;28;20025;-41
2021/11/22 11:06:04;;;;;;;8.25;1.58;;;;;;;14.16;46.24;102832.44;5055027;28;20392;-41
2021/11/22 11:08:30;;;;;;;7.18;2.00;;;;;;;14.42;46.54;102829.78;5053920;28;20063;-41
2021/11/22 11:11:28;;;;;;;9.85;1.70;;;;;;;14.32;46.35;102829.00;5030814;28;20116;-41
2021/11/22 11:13:53;;;;;;;5.57;1.00;;;;;;;14.31;46.05;102832.75;5023932;28;20119;-41
2021/11/22 11:16:20;;;;;;;4.30;1.15;;;;;;;13.87;46.59;102830.00;5055174;28;20033;-41
2021/11/22 11:19:07;;;;;;;5.17;1.30;;;;;;;13.31;47.64;102830.09;5053953;28;20096;-41
2021/11/22 11:21:45;;;;;;;8.47;1.30;;;;;;;13.97;47.81;102831.63;5055560;28;20408;-41
2021/11/22 11:24:12;;;;;;;9.80;1.35;;;;;;;14.75;44.46;102835.44;5055756;28;20087;-40